Terminal Aerodrome Forecast
Issued by NWS Twin Cities, MN

Home | Current Version | Previous Version | Text Only | Print | Product List | Glossary Off
Versions: 1 2 3 4 5 6 7 8 9 10 11 12 13 14 15 16 17 18 19 20 21 22 23 24 25 26 27 28 29 30 31 32 33 34

000
FTUS43 KMPX 132335
TAFMSP
TAF
KMSP 132335Z 1400/1506 34014G22KT P6SM BKN025 OVC060
     FM140200 32007KT P6SM OVC030
     FM140900 31004KT P6SM BKN025
     FM141900 29005KT P6SM BKN020
     FM150300 30005KT P6SM BKN035=

USA.gov is the U.S. government's official web portal to all federal, state and local government web resources and services.